sensor_id;sensor_type;location;lat;lon;timestamp;P1;durP1;ratioP1;P2;durP2;ratioP2
11568;SDS011;5840;46.894;15.542;2023-08-24T00:00:16;11.23;;;10.27;;
11568;SDS011;5840;46.894;15.542;2023-08-24T00:02:43;10.77;;;9.87;;
11568;SDS011;5840;46.894;15.542;2023-08-24T00:05:10;10.77;;;9.83;;
11568;SDS011;5840;46.894;15.542;2023-08-24T00:07:38;10.43;;;9.50;;
11568;SDS011;5840;46.894;15.542;2023-08-24T00:10:05;9.77;;;9.03;;
11568;SDS011;5840;46.894;15.542;2023-08-24T00:12:32;10.17;;;9.37;;
11568;SDS011;5840;46.894;15.542;2023-08-24T00:15:00;10.47;;;9.63;;
11568;SDS011;5840;46.894;15.542;2023-08-24T00:17:29;10.60;;;9.80;;
11568;SDS011;5840;46.894;15.542;2023-08-24T00:19:56;10.93;;;10.03;;
11568;SDS011;5840;46.894;15.542;2023-08-24T00:22:23;10.57;;;9.77;;
11568;SDS011;5840;46.894;15.542;2023-08-24T00:24:50;9.93;;;9.17;;
11568;SDS011;5840;46.894;15.542;2023-08-24T00:27:17;10.57;;;9.67;;
11568;SDS011;5840;46.894;15.542;2023-08-24T00:29:44;10.20;;;9.40;;
11568;SDS011;5840;46.894;15.542;2023-08-24T00:32:10;10.23;;;9.43;;
11568;SDS011;5840;46.894;15.542;2023-08-24T00:34:39;10.20;;;9.40;;
11568;SDS011;5840;46.894;15.542;2023-08-24T00:37:06;10.93;;;10.03;;
11568;SDS011;5840;46.894;15.542;2023-08-24T00:39:32;10.67;;;9.87;;
11568;SDS011;5840;46.894;15.542;2023-08-24T00:41:59;10.40;;;9.63;;
11568;SDS011;5840;46.894;15.542;2023-08-24T00:44:26;10.67;;;9.87;;
11568;SDS011;5840;46.894;15.542;2023-08-24T00:46:53;11.93;;;10.73;;
11568;SDS011;5840;46.894;15.542;2023-08-24T00:49:20;11.00;;;10.00;;
11568;SDS011;5840;46.894;15.542;2023-08-24T00:51:49;10.90;;;10.07;;
11568;SDS011;5840;46.894;15.542;2023-08-24T00:54:17;11.57;;;10.50;;
11568;SDS011;5840;46.894;15.542;2023-08-24T00:56:44;11.87;;;10.77;;
11568;SDS011;5840;46.894;15.542;2023-08-24T00:59:11;12.37;;;11.27;;
11568;SDS011;5840;46.894;15.542;2023-08-24T01:01:39;11.57;;;10.53;;
11568;SDS011;5840;46.894;15.542;2023-08-24T01:04:07;12.00;;;10.90;;
11568;SDS011;5840;46.894;15.542;2023-08-24T01:06:36;11.30;;;10.40;;
11568;SDS011;5840;46.894;15.542;2023-08-24T01:09:04;11.43;;;10.43;;
11568;SDS011;5840;46.894;15.542;2023-08-24T01:11:33;11.30;;;10.40;;
11568;SDS011;5840;46.894;15.542;2023-08-24T01:14:09;12.00;;;10.73;;
11568;SDS011;5840;46.894;15.542;2023-08-24T01:16:47;10.80;;;9.70;;
11568;SDS011;5840;46.894;15.542;2023-08-24T01:19:21;11.33;;;10.43;;
11568;SDS011;5840;46.894;15.542;2023-08-24T01:21:59;11.27;;;10.37;;
11568;SDS011;5840;46.894;15.542;2023-08-24T01:24:34;10.47;;;9.63;;
11568;SDS011;5840;46.894;15.542;2023-08-24T01:27:07;10.60;;;9.83;;
11568;SDS011;5840;46.894;15.542;2023-08-24T01:29:35;10.63;;;9.73;;
11568;SDS011;5840;46.894;15.542;2023-08-24T01:32:04;10.63;;;9.83;;
11568;SDS011;5840;46.894;15.542;2023-08-24T01:34:30;11.43;;;10.43;;
11568;SDS011;5840;46.894;15.542;2023-08-24T01:36:58;11.43;;;10.53;;
11568;SDS011;5840;46.894;15.542;2023-08-24T01:39:27;11.50;;;10.23;;
11568;SDS011;5840;46.894;15.542;2023-08-24T01:42:02;11.10;;;10.10;;
11568;SDS011;5840;46.894;15.542;2023-08-24T01:44:35;12.37;;;11.27;;
11568;SDS011;5840;46.894;15.542;2023-08-24T01:47:05;11.50;;;10.37;;
11568;SDS011;5840;46.894;15.542;2023-08-24T01:49:36;11.03;;;10.03;;
11568;SDS011;5840;46.894;15.542;2023-08-24T01:52:05;12.13;;;11.20;;
11568;SDS011;5840;46.894;15.542;2023-08-24T01:54:32;11.37;;;10.33;;
11568;SDS011;5840;46.894;15.542;2023-08-24T01:56:59;11.13;;;10.10;;
11568;SDS011;5840;46.894;15.542;2023-08-24T01:59:26;12.00;;;10.43;;
11568;SDS011;5840;46.894;15.542;2023-08-24T02:01:54;12.40;;;11.40;;
11568;SDS011;5840;46.894;15.542;2023-08-24T02:04:21;11.70;;;10.60;;
11568;SDS011;5840;46.894;15.542;2023-08-24T02:06:48;11.60;;;10.60;;
11568;SDS011;5840;46.894;15.542;2023-08-24T02:09:14;11.20;;;10.23;;
11568;SDS011;5840;46.894;15.542;2023-08-24T02:11:41;10.87;;;10.03;;
11568;SDS011;5840;46.894;15.542;2023-08-24T02:14:08;12.47;;;11.47;;
11568;SDS011;5840;46.894;15.542;2023-08-24T02:16:35;11.57;;;10.70;;
11568;SDS011;5840;46.894;15.542;2023-08-24T02:19:03;12.47;;;11.20;;
11568;SDS011;5840;46.894;15.542;2023-08-24T02:21:30;12.03;;;10.97;;
11568;SDS011;5840;46.894;15.542;2023-08-24T02:23:57;11.97;;;11.03;;
11568;SDS011;5840;46.894;15.542;2023-08-24T02:26:24;11.97;;;11.00;;
11568;SDS011;5840;46.894;15.542;2023-08-24T02:28:51;12.27;;;11.07;;
11568;SDS011;5840;46.894;15.542;2023-08-24T02:31:18;14.97;;;10.70;;
11568;SDS011;5840;46.894;15.542;2023-08-24T02:33:45;11.40;;;10.40;;
11568;SDS011;5840;46.894;15.542;2023-08-24T02:36:15;12.23;;;11.03;;
11568;SDS011;5840;46.894;15.542;2023-08-24T02:38:42;11.47;;;10.57;;
11568;SDS011;5840;46.894;15.542;2023-08-24T02:41:09;11.80;;;10.60;;
11568;SDS011;5840;46.894;15.542;2023-08-24T02:43:36;11.17;;;10.17;;
11568;SDS011;5840;46.894;15.542;2023-08-24T02:46:03;11.10;;;10.10;;
11568;SDS011;5840;46.894;15.542;2023-08-24T02:48:31;12.30;;;11.20;;
11568;SDS011;5840;46.894;15.542;2023-08-24T02:50:59;11.10;;;10.27;;
11568;SDS011;5840;46.894;15.542;2023-08-24T02:53:29;11.83;;;10.73;;
11568;SDS011;5840;46.894;15.542;2023-08-24T02:55:56;10.80;;;10.00;;
11568;SDS011;5840;46.894;15.542;2023-08-24T02:58:23;11.13;;;10.20;;
11568;SDS011;5840;46.894;15.542;2023-08-24T03:00:50;12.67;;;11.67;;
11568;SDS011;5840;46.894;15.542;2023-08-24T03:03:17;11.23;;;10.27;;
11568;SDS011;5840;46.894;15.542;2023-08-24T03:05:52;10.90;;;9.90;;
11568;SDS011;5840;46.894;15.542;2023-08-24T03:08:20;11.23;;;10.33;;
11568;SDS011;5840;46.894;15.542;2023-08-24T03:10:48;11.07;;;10.17;;
11568;SDS011;5840;46.894;15.542;2023-08-24T03:13:15;11.03;;;10.23;;
11568;SDS011;5840;46.894;15.542;2023-08-24T03:15:42;12.30;;;11.10;;
11568;SDS011;5840;46.894;15.542;2023-08-24T03:18:10;11.80;;;10.70;;
11568;SDS011;5840;46.894;15.542;2023-08-24T03:20:38;12.33;;;11.33;;
11568;SDS011;5840;46.894;15.542;2023-08-24T03:23:05;12.87;;;11.57;;
11568;SDS011;5840;46.894;15.542;2023-08-24T03:25:34;11.97;;;10.90;;
11568;SDS011;5840;46.894;15.542;2023-08-24T03:28:04;11.83;;;10.73;;
11568;SDS011;5840;46.894;15.542;2023-08-24T03:30:32;12.43;;;11.37;;
11568;SDS011;5840;46.894;15.542;2023-08-24T03:32:59;12.67;;;11.63;;
11568;SDS011;5840;46.894;15.542;2023-08-24T03:35:28;12.00;;;11.03;;
11568;SDS011;5840;46.894;15.542;2023-08-24T03:37:55;12.87;;;11.70;;
11568;SDS011;5840;46.894;15.542;2023-08-24T03:40:22;11.70;;;10.70;;
11568;SDS011;5840;46.894;15.542;2023-08-24T03:42:48;12.43;;;11.27;;
11568;SDS011;5840;46.894;15.542;2023-08-24T03:45:17;11.70;;;10.80;;
11568;SDS011;5840;46.894;15.542;2023-08-24T03:47:44;11.20;;;10.40;;
11568;SDS011;5840;46.894;15.542;2023-08-24T03:50:11;12.07;;;11.03;;
11568;SDS011;5840;46.894;15.542;2023-08-24T03:52:37;12.13;;;11.03;;
11568;SDS011;5840;46.894;15.542;2023-08-24T03:55:05;12.53;;;11.37;;
11568;SDS011;5840;46.894;15.542;2023-08-24T03:57:33;12.20;;;11.10;;
11568;SDS011;5840;46.894;15.542;2023-08-24T04:00:00;11.80;;;10.90;;
11568;SDS011;5840;46.894;15.542;2023-08-24T04:02:30;11.97;;;10.90;;
11568;SDS011;5840;46.894;15.542;2023-08-24T04:04:57;12.83;;;11.67;;
11568;SDS011;5840;46.894;15.542;2023-08-24T04:07:24;12.40;;;11.00;;
11568;SDS011;5840;46.894;15.542;2023-08-24T04:09:51;11.37;;;10.47;;
11568;SDS011;5840;46.894;15.542;2023-08-24T04:12:18;12.27;;;11.27;;
11568;SDS011;5840;46.894;15.542;2023-08-24T04:14:45;12.90;;;11.80;;
11568;SDS011;5840;46.894;15.542;2023-08-24T04:17:12;12.27;;;11.27;;
11568;SDS011;5840;46.894;15.542;2023-08-24T04:19:41;12.73;;;11.83;;
11568;SDS011;5840;46.894;15.542;2023-08-24T04:22:08;12.90;;;11.87;;
11568;SDS011;5840;46.894;15.542;2023-08-24T04:24:35;13.60;;;12.37;;
11568;SDS011;5840;46.894;15.542;2023-08-24T04:27:02;11.90;;;11.00;;
11568;SDS011;5840;46.894;15.542;2023-08-24T04:29:29;13.80;;;12.60;;
11568;SDS011;5840;46.894;15.542;2023-08-24T04:31:55;12.23;;;11.33;;
11568;SDS011;5840;46.894;15.542;2023-08-24T04:34:22;12.60;;;11.43;;
11568;SDS011;5840;46.894;15.542;2023-08-24T04:36:50;12.87;;;11.97;;
11568;SDS011;5840;46.894;15.542;2023-08-24T04:39:17;12.83;;;11.63;;
11568;SDS011;5840;46.894;15.542;2023-08-24T04:41:44;12.97;;;11.77;;
11568;SDS011;5840;46.894;15.542;2023-08-24T04:44:11;11.83;;;10.93;;
11568;SDS011;5840;46.894;15.542;2023-08-24T04:46:38;13.00;;;12.10;;
11568;SDS011;5840;46.894;15.542;2023-08-24T04:49:05;12.30;;;11.30;;
11568;SDS011;5840;46.894;15.542;2023-08-24T04:51:32;12.20;;;11.30;;
11568;SDS011;5840;46.894;15.542;2023-08-24T04:54:00;11.30;;;10.50;;
11568;SDS011;5840;46.894;15.542;2023-08-24T04:56:27;12.50;;;11.50;;
11568;SDS011;5840;46.894;15.542;2023-08-24T04:58:54;12.03;;;11.20;;
11568;SDS011;5840;46.894;15.542;2023-08-24T05:01:22;11.57;;;10.57;;
11568;SDS011;5840;46.894;15.542;2023-08-24T05:03:50;12.40;;;11.43;;
11568;SDS011;5840;46.894;15.542;2023-08-24T05:06:17;11.47;;;10.53;;
11568;SDS011;5840;46.894;15.542;2023-08-24T05:08:44;11.70;;;10.80;;
11568;SDS011;5840;46.894;15.542;2023-08-24T05:11:12;11.57;;;10.67;;
11568;SDS011;5840;46.894;15.542;2023-08-24T05:13:40;12.20;;;11.20;;
11568;SDS011;5840;46.894;15.542;2023-08-24T05:16:08;12.03;;;10.93;;
11568;SDS011;5840;46.894;15.542;2023-08-24T05:18:35;13.00;;;11.60;;
11568;SDS011;5840;46.894;15.542;2023-08-24T05:21:02;11.70;;;10.63;;
11568;SDS011;5840;46.894;15.542;2023-08-24T05:23:29;13.07;;;11.93;;
11568;SDS011;5840;46.894;15.542;2023-08-24T05:25:57;12.83;;;11.67;;
11568;SDS011;5840;46.894;15.542;2023-08-24T05:28:26;13.07;;;11.73;;
11568;SDS011;5840;46.894;15.542;2023-08-24T05:30:53;12.03;;;10.80;;
11568;SDS011;5840;46.894;15.542;2023-08-24T05:33:22;12.07;;;11.03;;
11568;SDS011;5840;46.894;15.542;2023-08-24T05:35:49;12.63;;;11.53;;
11568;SDS011;5840;46.894;15.542;2023-08-24T05:38:17;12.60;;;11.40;;
11568;SDS011;5840;46.894;15.542;2023-08-24T05:40:46;12.20;;;11.30;;
11568;SDS011;5840;46.894;15.542;2023-08-24T05:43:14;12.03;;;11.03;;
11568;SDS011;5840;46.894;15.542;2023-08-24T05:45:42;12.50;;;11.40;;
11568;SDS011;5840;46.894;15.542;2023-08-24T05:48:10;12.50;;;11.30;;
11568;SDS011;5840;46.894;15.542;2023-08-24T05:50:37;12.73;;;11.47;;
11568;SDS011;5840;46.894;15.542;2023-08-24T05:53:08;11.77;;;10.60;;
11568;SDS011;5840;46.894;15.542;2023-08-24T05:55:35;11.47;;;10.50;;
11568;SDS011;5840;46.894;15.542;2023-08-24T05:58:02;10.23;;;9.50;;
11568;SDS011;5840;46.894;15.542;2023-08-24T06:00:29;11.97;;;10.80;;
11568;SDS011;5840;46.894;15.542;2023-08-24T06:02:58;12.67;;;11.57;;
11568;SDS011;5840;46.894;15.542;2023-08-24T06:05:25;12.80;;;11.70;;
11568;SDS011;5840;46.894;15.542;2023-08-24T06:07:52;11.73;;;10.63;;
11568;SDS011;5840;46.894;15.542;2023-08-24T06:10:19;11.33;;;10.47;;
11568;SDS011;5840;46.894;15.542;2023-08-24T06:12:47;11.90;;;10.93;;
11568;SDS011;5840;46.894;15.542;2023-08-24T06:15:14;12.20;;;11.07;;
11568;SDS011;5840;46.894;15.542;2023-08-24T06:17:41;11.83;;;10.83;;
11568;SDS011;5840;46.894;15.542;2023-08-24T06:20:10;12.03;;;10.87;;
11568;SDS011;5840;46.894;15.542;2023-08-24T06:22:38;11.60;;;10.60;;
11568;SDS011;5840;46.894;15.542;2023-08-24T06:25:05;11.97;;;10.97;;
11568;SDS011;5840;46.894;15.542;2023-08-24T06:27:34;12.53;;;11.33;;
11568;SDS011;5840;46.894;15.542;2023-08-24T06:30:02;12.10;;;11.00;;
11568;SDS011;5840;46.894;15.542;2023-08-24T06:32:30;12.53;;;11.23;;
11568;SDS011;5840;46.894;15.542;2023-08-24T06:34:57;12.77;;;11.67;;
11568;SDS011;5840;46.894;15.542;2023-08-24T06:37:26;14.13;;;12.60;;
11568;SDS011;5840;46.894;15.542;2023-08-24T06:39:53;12.93;;;11.73;;
11568;SDS011;5840;46.894;15.542;2023-08-24T06:42:20;13.87;;;12.60;;
11568;SDS011;5840;46.894;15.542;2023-08-24T06:44:46;13.57;;;12.27;;
11568;SDS011;5840;46.894;15.542;2023-08-24T06:47:15;15.03;;;12.47;;
11568;SDS011;5840;46.894;15.542;2023-08-24T06:49:42;16.00;;;13.00;;
11568;SDS011;5840;46.894;15.542;2023-08-24T06:52:10;12.77;;;10.70;;
11568;SDS011;5840;46.894;15.542;2023-08-24T06:54:38;13.37;;;11.97;;
11568;SDS011;5840;46.894;15.542;2023-08-24T06:57:05;13.10;;;11.80;;
11568;SDS011;5840;46.894;15.542;2023-08-24T06:59:32;12.90;;;11.60;;
11568;SDS011;5840;46.894;15.542;2023-08-24T07:01:59;12.33;;;11.03;;
11568;SDS011;5840;46.894;15.542;2023-08-24T07:04:26;12.27;;;11.20;;
11568;SDS011;5840;46.894;15.542;2023-08-24T07:06:54;12.50;;;11.27;;
11568;SDS011;5840;46.894;15.542;2023-08-24T07:09:21;13.30;;;12.13;;
11568;SDS011;5840;46.894;15.542;2023-08-24T07:11:50;12.57;;;11.57;;
11568;SDS011;5840;46.894;15.542;2023-08-24T07:14:17;11.93;;;10.90;;
11568;SDS011;5840;46.894;15.542;2023-08-24T07:16:44;11.73;;;10.83;;
11568;SDS011;5840;46.894;15.542;2023-08-24T07:19:11;11.50;;;10.60;;
11568;SDS011;5840;46.894;15.542;2023-08-24T07:21:38;11.97;;;11.07;;
11568;SDS011;5840;46.894;15.542;2023-08-24T07:24:05;12.07;;;11.17;;
11568;SDS011;5840;46.894;15.542;2023-08-24T07:26:33;12.40;;;11.27;;
11568;SDS011;5840;46.894;15.542;2023-08-24T07:29:01;12.50;;;11.27;;
11568;SDS011;5840;46.894;15.542;2023-08-24T07:31:28;11.87;;;10.73;;
11568;SDS011;5840;46.894;15.542;2023-08-24T07:33:55;11.77;;;10.67;;
11568;SDS011;5840;46.894;15.542;2023-08-24T07:36:22;12.20;;;10.97;;
11568;SDS011;5840;46.894;15.542;2023-08-24T07:38:49;12.23;;;11.13;;
11568;SDS011;5840;46.894;15.542;2023-08-24T07:41:16;11.90;;;10.90;;
11568;SDS011;5840;46.894;15.542;2023-08-24T07:43:43;11.17;;;10.33;;
11568;SDS011;5840;46.894;15.542;2023-08-24T07:46:11;11.60;;;10.70;;
11568;SDS011;5840;46.894;15.542;2023-08-24T07:48:38;13.13;;;11.83;;
11568;SDS011;5840;46.894;15.542;2023-08-24T07:51:06;13.40;;;12.17;;
11568;SDS011;5840;46.894;15.542;2023-08-24T07:53:33;12.80;;;11.90;;
11568;SDS011;5840;46.894;15.542;2023-08-24T07:56:00;12.87;;;11.87;;
11568;SDS011;5840;46.894;15.542;2023-08-24T07:58:27;13.93;;;12.80;;
11568;SDS011;5840;46.894;15.542;2023-08-24T08:00:56;12.67;;;11.57;;
11568;SDS011;5840;46.894;15.542;2023-08-24T08:03:24;13.53;;;12.43;;
11568;SDS011;5840;46.894;15.542;2023-08-24T08:05:52;13.03;;;11.93;;
11568;SDS011;5840;46.894;15.542;2023-08-24T08:08:19;11.83;;;10.73;;
11568;SDS011;5840;46.894;15.542;2023-08-24T08:10:46;12.50;;;11.50;;
11568;SDS011;5840;46.894;15.542;2023-08-24T08:13:13;13.13;;;12.03;;
11568;SDS011;5840;46.894;15.542;2023-08-24T08:15:40;11.83;;;10.90;;
11568;SDS011;5840;46.894;15.542;2023-08-24T08:18:07;13.20;;;12.17;;
11568;SDS011;5840;46.894;15.542;2023-08-24T08:20:35;11.37;;;10.57;;
11568;SDS011;5840;46.894;15.542;2023-08-24T08:23:02;12.23;;;11.23;;
11568;SDS011;5840;46.894;15.542;2023-08-24T08:25:29;11.37;;;10.47;;
11568;SDS011;5840;46.894;15.542;2023-08-24T08:27:56;12.33;;;11.27;;
11568;SDS011;5840;46.894;15.542;2023-08-24T08:30:23;10.63;;;9.90;;
11568;SDS011;5840;46.894;15.542;2023-08-24T08:32:50;11.93;;;10.93;;
11568;SDS011;5840;46.894;15.542;2023-08-24T08:35:17;11.70;;;10.70;;
11568;SDS011;5840;46.894;15.542;2023-08-24T08:37:45;11.80;;;10.80;;
11568;SDS011;5840;46.894;15.542;2023-08-24T08:40:14;12.43;;;11.47;;
11568;SDS011;5840;46.894;15.542;2023-08-24T08:42:42;12.30;;;11.20;;
11568;SDS011;5840;46.894;15.542;2023-08-24T08:45:09;12.00;;;11.10;;
11568;SDS011;5840;46.894;15.542;2023-08-24T08:47:37;12.33;;;11.27;;
11568;SDS011;5840;46.894;15.542;2023-08-24T08:50:06;11.97;;;11.13;;
11568;SDS011;5840;46.894;15.542;2023-08-24T08:52:34;11.63;;;10.57;;
11568;SDS011;5840;46.894;15.542;2023-08-24T08:55:03;11.83;;;10.73;;
11568;SDS011;5840;46.894;15.542;2023-08-24T08:57:32;11.40;;;10.50;;
11568;SDS011;5840;46.894;15.542;2023-08-24T09:00:00;12.77;;;11.77;;
11568;SDS011;5840;46.894;15.542;2023-08-24T09:02:27;12.57;;;11.30;;
11568;SDS011;5840;46.894;15.542;2023-08-24T09:04:56;11.60;;;10.70;;
11568;SDS011;5840;46.894;15.542;2023-08-24T09:07:23;11.67;;;10.60;;
11568;SDS011;5840;46.894;15.542;2023-08-24T09:09:51;11.80;;;10.83;;
11568;SDS011;5840;46.894;15.542;2023-08-24T09:12:19;11.33;;;10.43;;
11568;SDS011;5840;46.894;15.542;2023-08-24T09:14:46;11.03;;;10.33;;
11568;SDS011;5840;46.894;15.542;2023-08-24T09:17:19;11.20;;;10.40;;
11568;SDS011;5840;46.894;15.542;2023-08-24T09:19:47;12.53;;;11.43;;
11568;SDS011;5840;46.894;15.542;2023-08-24T09:22:16;11.13;;;10.23;;
11568;SDS011;5840;46.894;15.542;2023-08-24T09:24:43;12.00;;;11.00;;
11568;SDS011;5840;46.894;15.542;2023-08-24T09:27:14;12.03;;;11.10;;
11568;SDS011;5840;46.894;15.542;2023-08-24T09:29:46;11.40;;;10.50;;
11568;SDS011;5840;46.894;15.542;2023-08-24T09:32:15;12.10;;;11.10;;
11568;SDS011;5840;46.894;15.542;2023-08-24T09:34:47;12.17;;;11.07;;
11568;SDS011;5840;46.894;15.542;2023-08-24T09:37:14;12.00;;;11.10;;
11568;SDS011;5840;46.894;15.542;2023-08-24T09:39:41;11.63;;;10.83;;
11568;SDS011;5840;46.894;15.542;2023-08-24T09:42:08;11.07;;;10.27;;
11568;SDS011;5840;46.894;15.542;2023-08-24T09:44:35;11.47;;;10.50;;
11568;SDS011;5840;46.894;15.542;2023-08-24T09:47:06;11.87;;;11.03;;
11568;SDS011;5840;46.894;15.542;2023-08-24T09:49:36;11.30;;;10.40;;
11568;SDS011;5840;46.894;15.542;2023-08-24T09:52:04;12.17;;;11.10;;
11568;SDS011;5840;46.894;15.542;2023-08-24T09:54:34;12.13;;;11.17;;
11568;SDS011;5840;46.894;15.542;2023-08-24T09:57:04;11.87;;;10.87;;
11568;SDS011;5840;46.894;15.542;2023-08-24T09:59:34;12.10;;;11.10;;
11568;SDS011;5840;46.894;15.542;2023-08-24T10:02:04;12.27;;;11.20;;
11568;SDS011;5840;46.894;15.542;2023-08-24T10:04:42;11.57;;;10.67;;
11568;SDS011;5840;46.894;15.542;2023-08-24T10:07:10;12.03;;;11.23;;
11568;SDS011;5840;46.894;15.542;2023-08-24T10:09:44;12.37;;;11.47;;
11568;SDS011;5840;46.894;15.542;2023-08-24T10:12:13;11.30;;;10.50;;
11568;SDS011;5840;46.894;15.542;2023-08-24T10:14:47;11.53;;;10.70;;
11568;SDS011;5840;46.894;15.542;2023-08-24T10:17:20;12.70;;;11.53;;
11568;SDS011;5840;46.894;15.542;2023-08-24T10:19:48;10.63;;;9.93;;
11568;SDS011;5840;46.894;15.542;2023-08-24T10:22:18;11.02;;;10.23;;
11568;SDS011;5840;46.894;15.542;2023-08-24T10:24:46;11.20;;;10.30;;
11568;SDS011;5840;46.894;15.542;2023-08-24T10:27:14;11.83;;;11.03;;
11568;SDS011;5840;46.894;15.542;2023-08-24T10:29:42;11.73;;;10.90;;
11568;SDS011;5840;46.894;15.542;2023-08-24T10:32:09;11.90;;;10.93;;
11568;SDS011;5840;46.894;15.542;2023-08-24T10:34:38;12.70;;;11.60;;
11568;SDS011;5840;46.894;15.542;2023-08-24T10:37:07;12.20;;;11.27;;
11568;SDS011;5840;46.894;15.542;2023-08-24T10:39:35;11.43;;;10.53;;
11568;SDS011;5840;46.894;15.542;2023-08-24T10:42:03;11.38;;;10.35;;
11568;SDS011;5840;46.894;15.542;2023-08-24T10:44:34;11.60;;;10.63;;
11568;SDS011;5840;46.894;15.542;2023-08-24T10:47:06;11.73;;;10.77;;
11568;SDS011;5840;46.894;15.542;2023-08-24T10:49:41;10.95;;;10.18;;
11568;SDS011;5840;46.894;15.542;2023-08-24T10:52:21;11.63;;;10.40;;
11568;SDS011;5840;46.894;15.542;2023-08-24T10:54:50;11.83;;;10.87;;
11568;SDS011;5840;46.894;15.542;2023-08-24T10:57:18;10.63;;;9.90;;
11568;SDS011;5840;46.894;15.542;2023-08-24T10:59:59;11.80;;;11.00;;
11568;SDS011;5840;46.894;15.542;2023-08-24T11:02:40;12.40;;;11.60;;
11568;SDS011;5840;46.894;15.542;2023-08-24T11:05:16;12.90;;;12.00;;
11568;SDS011;5840;46.894;15.542;2023-08-24T11:07:55;12.60;;;11.63;;
11568;SDS011;5840;46.894;15.542;2023-08-24T11:10:24;13.27;;;12.27;;
11568;SDS011;5840;46.894;15.542;2023-08-24T11:13:10;12.30;;;11.45;;
11568;SDS011;5840;46.894;15.542;2023-08-24T11:15:39;12.43;;;11.53;;
11568;SDS011;5840;46.894;15.542;2023-08-24T11:18:14;12.40;;;11.50;;
11568;SDS011;5840;46.894;15.542;2023-08-24T11:20:47;13.23;;;12.10;;
11568;SDS011;5840;46.894;15.542;2023-08-24T11:23:15;12.60;;;11.70;;
11568;SDS011;5840;46.894;15.542;2023-08-24T11:25:43;12.43;;;11.50;;
11568;SDS011;5840;46.894;15.542;2023-08-24T11:28:10;11.33;;;10.53;;
11568;SDS011;5840;46.894;15.542;2023-08-24T11:30:42;11.97;;;11.03;;
11568;SDS011;5840;46.894;15.542;2023-08-24T11:33:10;11.77;;;10.83;;
11568;SDS011;5840;46.894;15.542;2023-08-24T11:35:39;12.55;;;11.55;;
11568;SDS011;5840;46.894;15.542;2023-08-24T11:38:09;12.63;;;11.53;;
11568;SDS011;5840;46.894;15.542;2023-08-24T11:40:37;12.90;;;11.63;;
11568;SDS011;5840;46.894;15.542;2023-08-24T11:43:04;12.50;;;11.60;;
11568;SDS011;5840;46.894;15.542;2023-08-24T11:45:32;12.33;;;11.43;;
11568;SDS011;5840;46.894;15.542;2023-08-24T11:48:02;12.13;;;11.20;;
11568;SDS011;5840;46.894;15.542;2023-08-24T11:50:30;13.07;;;12.00;;
11568;SDS011;5840;46.894;15.542;2023-08-24T11:52:59;13.67;;;12.60;;
11568;SDS011;5840;46.894;15.542;2023-08-24T11:55:29;13.07;;;12.03;;
11568;SDS011;5840;46.894;15.542;2023-08-24T11:57:56;12.07;;;11.13;;
11568;SDS011;5840;46.894;15.542;2023-08-24T12:00:23;12.93;;;12.03;;
11568;SDS011;5840;46.894;15.542;2023-08-24T12:02:51;12.60;;;11.30;;
11568;SDS011;5840;46.894;15.542;2023-08-24T12:05:20;12.32;;;11.43;;
11568;SDS011;5840;46.894;15.542;2023-08-24T12:07:48;13.07;;;11.97;;
11568;SDS011;5840;46.894;15.542;2023-08-24T12:10:17;12.43;;;11.43;;
11568;SDS011;5840;46.894;15.542;2023-08-24T12:12:46;12.57;;;11.63;;
11568;SDS011;5840;46.894;15.542;2023-08-24T12:15:17;13.00;;;11.90;;
11568;SDS011;5840;46.894;15.542;2023-08-24T12:17:45;12.17;;;11.27;;
11568;SDS011;5840;46.894;15.542;2023-08-24T12:20:17;12.30;;;11.50;;
11568;SDS011;5840;46.894;15.542;2023-08-24T12:22:54;12.97;;;11.87;;
11568;SDS011;5840;46.894;15.542;2023-08-24T12:25:22;12.80;;;11.70;;
11568;SDS011;5840;46.894;15.542;2023-08-24T12:27:51;13.50;;;12.50;;
11568;SDS011;5840;46.894;15.542;2023-08-24T12:30:19;12.37;;;11.57;;
11568;SDS011;5840;46.894;15.542;2023-08-24T12:32:47;12.25;;;11.27;;
11568;SDS011;5840;46.894;15.542;2023-08-24T12:35:17;13.33;;;12.23;;
11568;SDS011;5840;46.894;15.542;2023-08-24T12:37:44;12.57;;;11.73;;
11568;SDS011;5840;46.894;15.542;2023-08-24T12:40:12;12.17;;;11.33;;
11568;SDS011;5840;46.894;15.542;2023-08-24T12:42:40;13.77;;;12.57;;
11568;SDS011;5840;46.894;15.542;2023-08-24T12:45:09;12.97;;;12.07;;
11568;SDS011;5840;46.894;15.542;2023-08-24T12:47:37;12.40;;;11.60;;
11568;SDS011;5840;46.894;15.542;2023-08-24T12:50:07;13.83;;;12.73;;
11568;SDS011;5840;46.894;15.542;2023-08-24T12:52:35;13.50;;;12.40;;
11568;SDS011;5840;46.894;15.542;2023-08-24T12:55:03;13.53;;;12.50;;
11568;SDS011;5840;46.894;15.542;2023-08-24T12:57:31;13.23;;;12.07;;
11568;SDS011;5840;46.894;15.542;2023-08-24T13:00:01;13.03;;;11.83;;
11568;SDS011;5840;46.894;15.542;2023-08-24T13:02:31;14.03;;;12.87;;
11568;SDS011;5840;46.894;15.542;2023-08-24T13:04:59;14.10;;;12.93;;
11568;SDS011;5840;46.894;15.542;2023-08-24T13:07:31;13.70;;;12.60;;
11568;SDS011;5840;46.894;15.542;2023-08-24T13:09:58;13.77;;;12.70;;
11568;SDS011;5840;46.894;15.542;2023-08-24T13:12:25;13.57;;;12.40;;
11568;SDS011;5840;46.894;15.542;2023-08-24T13:14:52;13.07;;;12.10;;
11568;SDS011;5840;46.894;15.542;2023-08-24T13:17:20;13.70;;;12.50;;
11568;SDS011;5840;46.894;15.542;2023-08-24T13:19:49;13.40;;;12.20;;
11568;SDS011;5840;46.894;15.542;2023-08-24T13:22:16;13.33;;;12.33;;
11568;SDS011;5840;46.894;15.542;2023-08-24T13:24:43;14.40;;;13.30;;
11568;SDS011;5840;46.894;15.542;2023-08-24T13:27:10;13.57;;;12.47;;
11568;SDS011;5840;46.894;15.542;2023-08-24T13:29:37;13.60;;;12.60;;
11568;SDS011;5840;46.894;15.542;2023-08-24T13:32:04;13.80;;;12.80;;
11568;SDS011;5840;46.894;15.542;2023-08-24T13:34:31;13.43;;;12.40;;
11568;SDS011;5840;46.894;15.542;2023-08-24T13:36:59;13.70;;;12.50;;
11568;SDS011;5840;46.894;15.542;2023-08-24T13:39:27;14.53;;;13.33;;
11568;SDS011;5840;46.894;15.542;2023-08-24T13:41:54;13.83;;;12.60;;
11568;SDS011;5840;46.894;15.542;2023-08-24T13:44:21;14.40;;;13.30;;
11568;SDS011;5840;46.894;15.542;2023-08-24T13:46:49;14.57;;;13.27;;
11568;SDS011;5840;46.894;15.542;2023-08-24T13:49:16;13.73;;;12.70;;
11568;SDS011;5840;46.894;15.542;2023-08-24T13:51:45;14.47;;;13.27;;
11568;SDS011;5840;46.894;15.542;2023-08-24T13:54:14;13.90;;;12.80;;
11568;SDS011;5840;46.894;15.542;2023-08-24T13:56:42;14.07;;;12.87;;
11568;SDS011;5840;46.894;15.542;2023-08-24T13:59:09;14.07;;;13.03;;
11568;SDS011;5840;46.894;15.542;2023-08-24T14:01:36;12.50;;;11.60;;
11568;SDS011;5840;46.894;15.542;2023-08-24T14:04:03;13.90;;;12.80;;
11568;SDS011;5840;46.894;15.542;2023-08-24T14:06:30;13.97;;;12.87;;
11568;SDS011;5840;46.894;15.542;2023-08-24T14:08:58;13.87;;;12.57;;
11568;SDS011;5840;46.894;15.542;2023-08-24T14:11:27;13.97;;;12.93;;
11568;SDS011;5840;46.894;15.542;2023-08-24T14:13:54;13.53;;;12.63;;
11568;SDS011;5840;46.894;15.542;2023-08-24T14:16:21;13.23;;;12.03;;
11568;SDS011;5840;46.894;15.542;2023-08-24T14:18:48;13.23;;;12.23;;
11568;SDS011;5840;46.894;15.542;2023-08-24T14:21:15;13.43;;;12.30;;
11568;SDS011;5840;46.894;15.542;2023-08-24T14:23:42;12.97;;;11.90;;
11568;SDS011;5840;46.894;15.542;2023-08-24T14:26:09;13.77;;;12.43;;
11568;SDS011;5840;46.894;15.542;2023-08-24T14:28:50;13.33;;;12.23;;